sensor_id;sensor_type;location;lat;lon;timestamp;P1;durP1;ratioP1;P2;durP2;ratioP2
10387;SDS011;5240;51.128;4.566;2022-07-21T00:01:06;9.05;;;8.18;;
10387;SDS011;5240;51.128;4.566;2022-07-21T00:03:34;9.75;;;8.85;;
10387;SDS011;5240;51.128;4.566;2022-07-21T00:06:01;9.90;;;8.85;;
10387;SDS011;5240;51.128;4.566;2022-07-21T00:08:30;10.35;;;9.05;;
10387;SDS011;5240;51.128;4.566;2022-07-21T00:10:57;11.05;;;9.57;;
10387;SDS011;5240;51.128;4.566;2022-07-21T00:13:25;9.48;;;8.52;;
10387;SDS011;5240;51.128;4.566;2022-07-21T00:15:52;10.60;;;9.63;;
10387;SDS011;5240;51.128;4.566;2022-07-21T00:18:20;10.45;;;9.38;;
10387;SDS011;5240;51.128;4.566;2022-07-21T00:20:47;10.70;;;9.70;;
10387;SDS011;5240;51.128;4.566;2022-07-21T00:23:14;10.57;;;9.60;;
10387;SDS011;5240;51.128;4.566;2022-07-21T00:25:43;10.82;;;9.38;;
10387;SDS011;5240;51.128;4.566;2022-07-21T00:28:10;11.05;;;9.95;;
10387;SDS011;5240;51.128;4.566;2022-07-21T00:30:38;11.57;;;10.35;;
10387;SDS011;5240;51.128;4.566;2022-07-21T00:33:05;11.23;;;10.23;;
10387;SDS011;5240;51.128;4.566;2022-07-21T00:35:32;12.60;;;11.40;;
10387;SDS011;5240;51.128;4.566;2022-07-21T00:37:59;12.50;;;11.18;;
10387;SDS011;5240;51.128;4.566;2022-07-21T00:40:27;11.38;;;10.35;;
10387;SDS011;5240;51.128;4.566;2022-07-21T00:42:55;12.93;;;11.55;;
10387;SDS011;5240;51.128;4.566;2022-07-21T00:45:23;12.15;;;10.95;;
10387;SDS011;5240;51.128;4.566;2022-07-21T00:47:50;12.20;;;10.93;;
10387;SDS011;5240;51.128;4.566;2022-07-21T00:50:18;12.40;;;11.15;;
10387;SDS011;5240;51.128;4.566;2022-07-21T00:52:47;12.70;;;11.40;;
10387;SDS011;5240;51.128;4.566;2022-07-21T00:55:16;12.98;;;10.90;;
10387;SDS011;5240;51.128;4.566;2022-07-21T00:57:43;11.98;;;10.57;;
10387;SDS011;5240;51.128;4.566;2022-07-21T01:00:14;11.20;;;10.15;;
10387;SDS011;5240;51.128;4.566;2022-07-21T01:02:41;13.30;;;11.43;;
10387;SDS011;5240;51.128;4.566;2022-07-21T01:05:10;12.27;;;10.98;;
10387;SDS011;5240;51.128;4.566;2022-07-21T01:07:39;15.55;;;11.15;;
10387;SDS011;5240;51.128;4.566;2022-07-21T01:10:07;11.57;;;10.48;;
10387;SDS011;5240;51.128;4.566;2022-07-21T01:12:35;11.80;;;10.57;;
10387;SDS011;5240;51.128;4.566;2022-07-21T01:15:03;12.43;;;11.15;;
10387;SDS011;5240;51.128;4.566;2022-07-21T01:17:31;11.65;;;10.38;;
10387;SDS011;5240;51.128;4.566;2022-07-21T01:19:59;12.48;;;10.13;;
10387;SDS011;5240;51.128;4.566;2022-07-21T01:22:30;11.52;;;10.18;;
10387;SDS011;5240;51.128;4.566;2022-07-21T01:24:57;12.63;;;11.27;;
10387;SDS011;5240;51.128;4.566;2022-07-21T01:27:25;12.15;;;10.90;;
10387;SDS011;5240;51.128;4.566;2022-07-21T01:29:53;13.27;;;11.80;;
10387;SDS011;5240;51.128;4.566;2022-07-21T01:32:20;12.13;;;11.10;;
10387;SDS011;5240;51.128;4.566;2022-07-21T01:34:47;14.27;;;11.90;;
10387;SDS011;5240;51.128;4.566;2022-07-21T01:37:15;16.20;;;11.45;;
10387;SDS011;5240;51.128;4.566;2022-07-21T01:39:48;12.98;;;10.70;;
10387;SDS011;5240;51.128;4.566;2022-07-21T01:42:32;11.57;;;10.45;;
10387;SDS011;5240;51.128;4.566;2022-07-21T01:44:59;11.45;;;9.80;;
10387;SDS011;5240;51.128;4.566;2022-07-21T01:47:27;11.30;;;9.70;;
10387;SDS011;5240;51.128;4.566;2022-07-21T01:49:54;12.38;;;8.90;;
10387;SDS011;5240;51.128;4.566;2022-07-21T01:52:21;11.10;;;9.02;;
10387;SDS011;5240;51.128;4.566;2022-07-21T01:54:50;10.95;;;8.70;;
10387;SDS011;5240;51.128;4.566;2022-07-21T01:57:17;9.65;;;8.13;;
10387;SDS011;5240;51.128;4.566;2022-07-21T01:59:45;11.85;;;8.00;;
10387;SDS011;5240;51.128;4.566;2022-07-21T02:02:12;12.75;;;8.02;;
10387;SDS011;5240;51.128;4.566;2022-07-21T02:04:39;8.27;;;7.47;;
10387;SDS011;5240;51.128;4.566;2022-07-21T02:07:06;9.02;;;8.10;;
10387;SDS011;5240;51.128;4.566;2022-07-21T02:09:33;11.00;;;7.70;;
10387;SDS011;5240;51.128;4.566;2022-07-21T02:12:02;9.40;;;7.43;;
10387;SDS011;5240;51.128;4.566;2022-07-21T02:14:30;9.25;;;7.65;;
10387;SDS011;5240;51.128;4.566;2022-07-21T02:16:57;10.45;;;7.22;;
10387;SDS011;5240;51.128;4.566;2022-07-21T02:19:24;11.55;;;8.07;;
10387;SDS011;5240;51.128;4.566;2022-07-21T02:21:51;7.70;;;6.85;;
10387;SDS011;5240;51.128;4.566;2022-07-21T02:24:19;10.35;;;7.45;;
10387;SDS011;5240;51.128;4.566;2022-07-21T02:26:47;9.93;;;7.43;;
10387;SDS011;5240;51.128;4.566;2022-07-21T02:29:16;9.48;;;7.28;;
10387;SDS011;5240;51.128;4.566;2022-07-21T02:31:43;9.02;;;8.02;;
10387;SDS011;5240;51.128;4.566;2022-07-21T02:34:10;9.13;;;7.72;;
10387;SDS011;5240;51.128;4.566;2022-07-21T02:36:37;9.82;;;7.65;;
10387;SDS011;5240;51.128;4.566;2022-07-21T02:39:04;8.98;;;7.10;;
10387;SDS011;5240;51.128;4.566;2022-07-21T02:41:32;8.55;;;7.00;;
10387;SDS011;5240;51.128;4.566;2022-07-21T02:43:59;8.48;;;7.32;;
10387;SDS011;5240;51.128;4.566;2022-07-21T02:46:28;9.57;;;7.25;;
10387;SDS011;5240;51.128;4.566;2022-07-21T02:48:55;8.60;;;7.05;;
10387;SDS011;5240;51.128;4.566;2022-07-21T02:51:22;12.90;;;7.50;;
10387;SDS011;5240;51.128;4.566;2022-07-21T02:53:49;8.25;;;6.80;;
10387;SDS011;5240;51.128;4.566;2022-07-21T02:56:17;10.77;;;7.15;;
10387;SDS011;5240;51.128;4.566;2022-07-21T02:58:44;8.32;;;6.95;;
10387;SDS011;5240;51.128;4.566;2022-07-21T03:01:11;14.20;;;7.43;;
10387;SDS011;5240;51.128;4.566;2022-07-21T03:03:40;9.05;;;7.25;;
10387;SDS011;5240;51.128;4.566;2022-07-21T03:06:07;11.07;;;7.00;;
10387;SDS011;5240;51.128;4.566;2022-07-21T03:08:35;8.35;;;7.07;;
10387;SDS011;5240;51.128;4.566;2022-07-21T03:11:02;9.63;;;6.55;;
10387;SDS011;5240;51.128;4.566;2022-07-21T03:13:29;12.40;;;7.68;;
10387;SDS011;5240;51.128;4.566;2022-07-21T03:15:56;8.88;;;7.32;;
10387;SDS011;5240;51.128;4.566;2022-07-21T03:18:24;9.30;;;7.45;;
10387;SDS011;5240;51.128;4.566;2022-07-21T03:20:53;10.75;;;7.47;;
10387;SDS011;5240;51.128;4.566;2022-07-21T03:23:20;11.95;;;7.88;;
10387;SDS011;5240;51.128;4.566;2022-07-21T03:25:47;12.80;;;8.15;;
10387;SDS011;5240;51.128;4.566;2022-07-21T03:28:15;12.50;;;7.60;;
10387;SDS011;5240;51.128;4.566;2022-07-21T03:30:42;12.18;;;7.70;;
10387;SDS011;5240;51.128;4.566;2022-07-21T03:33:09;7.95;;;7.00;;
10387;SDS011;5240;51.128;4.566;2022-07-21T03:35:36;9.77;;;7.90;;
10387;SDS011;5240;51.128;4.566;2022-07-21T03:38:05;11.82;;;8.40;;
10387;SDS011;5240;51.128;4.566;2022-07-21T03:40:33;9.40;;;7.20;;
10387;SDS011;5240;51.128;4.566;2022-07-21T03:43:02;10.60;;;7.47;;
10387;SDS011;5240;51.128;4.566;2022-07-21T03:45:30;9.63;;;7.55;;
10387;SDS011;5240;51.128;4.566;2022-07-21T03:47:57;10.07;;;7.95;;
10387;SDS011;5240;51.128;4.566;2022-07-21T03:50:25;12.48;;;8.38;;
10387;SDS011;5240;51.128;4.566;2022-07-21T03:52:52;13.45;;;7.78;;
10387;SDS011;5240;51.128;4.566;2022-07-21T03:55:21;10.70;;;7.45;;
10387;SDS011;5240;51.128;4.566;2022-07-21T03:57:49;12.13;;;7.93;;
10387;SDS011;5240;51.128;4.566;2022-07-21T04:00:18;9.40;;;7.03;;
10387;SDS011;5240;51.128;4.566;2022-07-21T04:02:45;10.73;;;8.10;;
10387;SDS011;5240;51.128;4.566;2022-07-21T04:05:12;9.95;;;8.18;;
10387;SDS011;5240;51.128;4.566;2022-07-21T04:07:41;11.10;;;8.52;;
10387;SDS011;5240;51.128;4.566;2022-07-21T04:10:09;12.57;;;8.48;;
10387;SDS011;5240;51.128;4.566;2022-07-21T04:12:38;10.85;;;9.07;;
10387;SDS011;5240;51.128;4.566;2022-07-21T04:15:05;9.82;;;8.70;;
10387;SDS011;5240;51.128;4.566;2022-07-21T04:17:34;13.90;;;8.55;;
10387;SDS011;5240;51.128;4.566;2022-07-21T04:20:02;11.18;;;9.30;;
10387;SDS011;5240;51.128;4.566;2022-07-21T04:22:29;11.90;;;9.20;;
10387;SDS011;5240;51.128;4.566;2022-07-21T04:24:57;13.60;;;9.98;;
10387;SDS011;5240;51.128;4.566;2022-07-21T04:27:24;15.68;;;9.98;;
10387;SDS011;5240;51.128;4.566;2022-07-21T04:29:53;11.18;;;8.48;;
10387;SDS011;5240;51.128;4.566;2022-07-21T04:32:20;12.18;;;10.70;;
10387;SDS011;5240;51.128;4.566;2022-07-21T04:34:48;12.32;;;11.00;;
10387;SDS011;5240;51.128;4.566;2022-07-21T04:37:15;14.25;;;9.93;;
10387;SDS011;5240;51.128;4.566;2022-07-21T04:39:42;14.73;;;10.07;;
10387;SDS011;5240;51.128;4.566;2022-07-21T04:42:09;15.63;;;11.02;;
10387;SDS011;5240;51.128;4.566;2022-07-21T04:44:36;13.77;;;10.85;;
10387;SDS011;5240;51.128;4.566;2022-07-21T04:47:05;15.88;;;11.05;;
10387;SDS011;5240;51.128;4.566;2022-07-21T04:49:32;17.30;;;11.10;;
10387;SDS011;5240;51.128;4.566;2022-07-21T04:52:00;15.93;;;11.45;;
10387;SDS011;5240;51.128;4.566;2022-07-21T04:54:27;13.93;;;10.85;;
10387;SDS011;5240;51.128;4.566;2022-07-21T04:56:54;18.30;;;12.27;;
10387;SDS011;5240;51.128;4.566;2022-07-21T04:59:21;14.75;;;11.45;;
10387;SDS011;5240;51.128;4.566;2022-07-21T05:01:50;18.00;;;12.52;;
10387;SDS011;5240;51.128;4.566;2022-07-21T05:04:18;16.30;;;12.70;;
10387;SDS011;5240;51.128;4.566;2022-07-21T05:06:45;16.27;;;12.70;;
10387;SDS011;5240;51.128;4.566;2022-07-21T05:09:13;18.10;;;13.98;;
10387;SDS011;5240;51.128;4.566;2022-07-21T05:11:40;22.33;;;14.75;;
10387;SDS011;5240;51.128;4.566;2022-07-21T05:14:07;17.45;;;15.00;;
10387;SDS011;5240;51.128;4.566;2022-07-21T05:16:34;18.40;;;14.48;;
10387;SDS011;5240;51.128;4.566;2022-07-21T05:19:02;17.92;;;14.07;;
10387;SDS011;5240;51.128;4.566;2022-07-21T05:21:30;17.58;;;13.98;;
10387;SDS011;5240;51.128;4.566;2022-07-21T05:23:57;19.27;;;14.05;;
10387;SDS011;5240;51.128;4.566;2022-07-21T05:26:25;19.00;;;14.95;;
10387;SDS011;5240;51.128;4.566;2022-07-21T05:28:52;19.10;;;13.95;;
10387;SDS011;5240;51.128;4.566;2022-07-21T05:31:19;20.55;;;14.63;;
10387;SDS011;5240;51.128;4.566;2022-07-21T05:33:46;19.10;;;15.68;;
10387;SDS011;5240;51.128;4.566;2022-07-21T05:36:13;18.95;;;14.80;;
10387;SDS011;5240;51.128;4.566;2022-07-21T05:38:42;20.23;;;16.55;;
10387;SDS011;5240;51.128;4.566;2022-07-21T05:41:09;19.38;;;16.73;;
10387;SDS011;5240;51.128;4.566;2022-07-21T05:43:36;20.23;;;16.83;;
10387;SDS011;5240;51.128;4.566;2022-07-21T05:46:04;23.23;;;17.20;;
10387;SDS011;5240;51.128;4.566;2022-07-21T05:48:31;25.38;;;18.85;;
10387;SDS011;5240;51.128;4.566;2022-07-21T05:50:58;26.88;;;19.30;;
10387;SDS011;5240;51.128;4.566;2022-07-21T05:53:25;25.80;;;20.50;;
10387;SDS011;5240;51.128;4.566;2022-07-21T05:55:54;24.73;;;20.30;;
10387;SDS011;5240;51.128;4.566;2022-07-21T05:58:21;23.40;;;20.75;;
10387;SDS011;5240;51.128;4.566;2022-07-21T06:00:49;23.05;;;20.75;;
10387;SDS011;5240;51.128;4.566;2022-07-21T06:03:30;24.25;;;21.45;;
10387;SDS011;5240;51.128;4.566;2022-07-21T06:05:57;25.13;;;22.42;;
10387;SDS011;5240;51.128;4.566;2022-07-21T06:08:25;26.98;;;22.20;;
10387;SDS011;5240;51.128;4.566;2022-07-21T06:10:53;29.00;;;23.85;;
10387;SDS011;5240;51.128;4.566;2022-07-21T06:13:20;30.98;;;25.98;;
10387;SDS011;5240;51.128;4.566;2022-07-21T06:15:48;29.33;;;26.10;;
10387;SDS011;5240;51.128;4.566;2022-07-21T06:18:15;30.35;;;27.05;;
10387;SDS011;5240;51.128;4.566;2022-07-21T06:20:45;32.08;;;27.40;;
10387;SDS011;5240;51.128;4.566;2022-07-21T06:23:12;31.08;;;27.77;;
10387;SDS011;5240;51.128;4.566;2022-07-21T06:25:40;31.55;;;28.15;;
10387;SDS011;5240;51.128;4.566;2022-07-21T06:28:09;29.63;;;26.52;;
10387;SDS011;5240;51.128;4.566;2022-07-21T06:30:36;30.30;;;26.38;;
10387;SDS011;5240;51.128;4.566;2022-07-21T06:33:04;30.15;;;26.65;;
10387;SDS011;5240;51.128;4.566;2022-07-21T06:35:31;28.38;;;25.38;;
10387;SDS011;5240;51.128;4.566;2022-07-21T06:37:58;28.38;;;25.65;;
10387;SDS011;5240;51.128;4.566;2022-07-21T06:40:25;26.95;;;23.88;;
10387;SDS011;5240;51.128;4.566;2022-07-21T06:42:53;27.70;;;24.55;;
10387;SDS011;5240;51.128;4.566;2022-07-21T06:45:22;27.33;;;24.00;;
10387;SDS011;5240;51.128;4.566;2022-07-21T06:47:49;28.65;;;24.17;;
10387;SDS011;5240;51.128;4.566;2022-07-21T06:50:16;28.38;;;24.40;;
10387;SDS011;5240;51.128;4.566;2022-07-21T06:52:43;29.33;;;23.17;;
10387;SDS011;5240;51.128;4.566;2022-07-21T06:55:11;26.23;;;23.65;;
10387;SDS011;5240;51.128;4.566;2022-07-21T06:57:38;25.17;;;22.48;;
10387;SDS011;5240;51.128;4.566;2022-07-21T07:00:06;24.23;;;21.83;;
10387;SDS011;5240;51.128;4.566;2022-07-21T07:02:35;25.52;;;20.73;;
10387;SDS011;5240;51.128;4.566;2022-07-21T07:05:03;22.92;;;20.65;;
10387;SDS011;5240;51.128;4.566;2022-07-21T07:07:30;20.40;;;18.45;;
10387;SDS011;5240;51.128;4.566;2022-07-21T07:09:57;20.55;;;18.45;;
10387;SDS011;5240;51.128;4.566;2022-07-21T07:12:25;17.75;;;15.95;;
10387;SDS011;5240;51.128;4.566;2022-07-21T07:14:52;15.55;;;14.18;;
10387;SDS011;5240;51.128;4.566;2022-07-21T07:17:20;14.98;;;13.55;;
10387;SDS011;5240;51.128;4.566;2022-07-21T07:19:48;15.05;;;13.55;;
10387;SDS011;5240;51.128;4.566;2022-07-21T07:22:15;14.57;;;13.27;;
10387;SDS011;5240;51.128;4.566;2022-07-21T07:24:42;16.05;;;14.60;;
10387;SDS011;5240;51.128;4.566;2022-07-21T07:27:09;15.77;;;14.38;;
10387;SDS011;5240;51.128;4.566;2022-07-21T07:29:36;16.35;;;14.85;;
10387;SDS011;5240;51.128;4.566;2022-07-21T07:32:03;16.30;;;14.80;;
10387;SDS011;5240;51.128;4.566;2022-07-21T07:34:31;17.58;;;15.77;;
10387;SDS011;5240;51.128;4.566;2022-07-21T07:36:59;18.08;;;16.27;;
10387;SDS011;5240;51.128;4.566;2022-07-21T07:39:26;19.00;;;17.20;;
10387;SDS011;5240;51.128;4.566;2022-07-21T07:41:53;19.02;;;17.20;;
10387;SDS011;5240;51.128;4.566;2022-07-21T07:44:21;20.52;;;18.73;;
10387;SDS011;5240;51.128;4.566;2022-07-21T07:46:48;21.02;;;19.02;;
10387;SDS011;5240;51.128;4.566;2022-07-21T07:49:15;22.60;;;20.50;;
10387;SDS011;5240;51.128;4.566;2022-07-21T07:51:42;23.83;;;21.63;;
10387;SDS011;5240;51.128;4.566;2022-07-21T07:54:11;24.73;;;22.27;;
10387;SDS011;5240;51.128;4.566;2022-07-21T07:56:38;24.17;;;21.77;;
10387;SDS011;5240;51.128;4.566;2022-07-21T07:59:05;25.88;;;23.25;;
10387;SDS011;5240;51.128;4.566;2022-07-21T08:01:32;27.23;;;24.42;;
10387;SDS011;5240;51.128;4.566;2022-07-21T08:03:59;26.83;;;24.15;;
10387;SDS011;5240;51.128;4.566;2022-07-21T08:06:26;26.73;;;24.05;;
10387;SDS011;5240;51.128;4.566;2022-07-21T08:08:54;28.00;;;24.92;;
10387;SDS011;5240;51.128;4.566;2022-07-21T08:11:22;25.83;;;22.33;;
10387;SDS011;5240;51.128;4.566;2022-07-21T08:13:50;25.88;;;23.38;;
10387;SDS011;5240;51.128;4.566;2022-07-21T08:16:17;26.17;;;23.73;;
10387;SDS011;5240;51.128;4.566;2022-07-21T08:18:45;25.00;;;22.58;;
10387;SDS011;5240;51.128;4.566;2022-07-21T08:21:12;24.83;;;22.17;;
10387;SDS011;5240;51.128;4.566;2022-07-21T08:23:39;24.92;;;22.02;;
10387;SDS011;5240;51.128;4.566;2022-07-21T08:26:06;24.35;;;21.80;;
10387;SDS011;5240;51.128;4.566;2022-07-21T08:28:34;25.08;;;22.10;;
10387;SDS011;5240;51.128;4.566;2022-07-21T08:31:01;24.25;;;21.83;;
10387;SDS011;5240;51.128;4.566;2022-07-21T08:33:28;25.02;;;22.45;;
10387;SDS011;5240;51.128;4.566;2022-07-21T08:35:55;24.23;;;21.83;;
10387;SDS011;5240;51.128;4.566;2022-07-21T08:38:22;23.02;;;20.63;;
10387;SDS011;5240;51.128;4.566;2022-07-21T08:40:49;22.80;;;20.42;;
10387;SDS011;5240;51.128;4.566;2022-07-21T08:43:16;24.17;;;21.73;;
10387;SDS011;5240;51.128;4.566;2022-07-21T08:45:45;24.58;;;21.92;;
10387;SDS011;5240;51.128;4.566;2022-07-21T08:48:12;21.90;;;19.70;;
10387;SDS011;5240;51.128;4.566;2022-07-21T08:50:44;22.02;;;19.85;;
10387;SDS011;5240;51.128;4.566;2022-07-21T08:53:11;23.00;;;20.60;;
10387;SDS011;5240;51.128;4.566;2022-07-21T08:55:38;23.10;;;20.05;;
10387;SDS011;5240;51.128;4.566;2022-07-21T08:58:06;22.42;;;20.02;;
10387;SDS011;5240;51.128;4.566;2022-07-21T09:00:36;21.95;;;19.38;;
10387;SDS011;5240;51.128;4.566;2022-07-21T09:03:10;26.02;;;20.15;;
10387;SDS011;5240;51.128;4.566;2022-07-21T09:05:39;19.73;;;17.60;;
10387;SDS011;5240;51.128;4.566;2022-07-21T09:08:06;20.10;;;17.17;;
10387;SDS011;5240;51.128;4.566;2022-07-21T09:10:33;21.60;;;18.40;;
10387;SDS011;5240;51.128;4.566;2022-07-21T09:13:02;19.63;;;16.63;;
10387;SDS011;5240;51.128;4.566;2022-07-21T09:15:31;20.77;;;16.95;;
10387;SDS011;5240;51.128;4.566;2022-07-21T09:18:03;19.30;;;16.30;;
10387;SDS011;5240;51.128;4.566;2022-07-21T09:20:34;21.48;;;17.85;;
10387;SDS011;5240;51.128;4.566;2022-07-21T09:23:02;20.80;;;18.63;;
10387;SDS011;5240;51.128;4.566;2022-07-21T09:25:38;20.25;;;18.08;;
10387;SDS011;5240;51.128;4.566;2022-07-21T09:28:14;20.88;;;18.77;;
10387;SDS011;5240;51.128;4.566;2022-07-21T09:30:48;22.23;;;20.00;;
10387;SDS011;5240;51.128;4.566;2022-07-21T09:33:20;22.40;;;20.08;;
10387;SDS011;5240;51.128;4.566;2022-07-21T09:35:54;22.13;;;20.05;;
10387;SDS011;5240;51.128;4.566;2022-07-21T09:38:23;22.48;;;20.17;;
10387;SDS011;5240;51.128;4.566;2022-07-21T09:40:51;20.45;;;18.48;;
10387;SDS011;5240;51.128;4.566;2022-07-21T09:43:31;19.90;;;17.75;;
10387;SDS011;5240;51.128;4.566;2022-07-21T09:46:04;17.25;;;14.52;;
10387;SDS011;5240;51.128;4.566;2022-07-21T09:48:32;15.52;;;14.02;;
10387;SDS011;5240;51.128;4.566;2022-07-21T09:51:20;18.13;;;15.25;;
10387;SDS011;5240;51.128;4.566;2022-07-21T09:53:50;14.32;;;12.82;;
10387;SDS011;5240;51.128;4.566;2022-07-21T09:56:19;13.55;;;11.02;;
10387;SDS011;5240;51.128;4.566;2022-07-21T09:58:47;12.05;;;10.82;;
10387;SDS011;5240;51.128;4.566;2022-07-21T10:01:15;13.32;;;11.23;;
10387;SDS011;5240;51.128;4.566;2022-07-21T10:03:43;11.93;;;10.45;;
10387;SDS011;5240;51.128;4.566;2022-07-21T10:06:11;12.27;;;10.48;;
10387;SDS011;5240;51.128;4.566;2022-07-21T10:08:41;13.20;;;11.20;;
10387;SDS011;5240;51.128;4.566;2022-07-21T10:11:09;13.65;;;10.55;;
10387;SDS011;5240;51.128;4.566;2022-07-21T10:13:38;12.88;;;11.27;;
10387;SDS011;5240;51.128;4.566;2022-07-21T10:16:06;13.50;;;10.63;;
10387;SDS011;5240;51.128;4.566;2022-07-21T10:18:36;14.15;;;10.43;;
10387;SDS011;5240;51.128;4.566;2022-07-21T10:21:14;15.15;;;10.55;;
10387;SDS011;5240;51.128;4.566;2022-07-21T10:23:52;13.05;;;9.57;;
10387;SDS011;5240;51.128;4.566;2022-07-21T10:26:20;13.27;;;9.10;;
10387;SDS011;5240;51.128;4.566;2022-07-21T10:28:47;11.02;;;8.57;;
10387;SDS011;5240;51.128;4.566;2022-07-21T10:31:18;13.38;;;9.05;;
10387;SDS011;5240;51.128;4.566;2022-07-21T10:33:59;10.02;;;7.28;;
10387;SDS011;5240;51.128;4.566;2022-07-21T10:36:40;7.97;;;6.43;;
10387;SDS011;5240;51.128;4.566;2022-07-21T10:42:02;10.73;;;7.03;;
10387;SDS011;5240;51.128;4.566;2022-07-21T10:44:46;11.88;;;7.30;;
10387;SDS011;5240;51.128;4.566;2022-07-21T10:47:14;9.23;;;7.50;;
10387;SDS011;5240;51.128;4.566;2022-07-21T10:49:45;10.80;;;8.00;;
10387;SDS011;5240;51.128;4.566;2022-07-21T10:55:20;13.07;;;8.75;;
10387;SDS011;5240;51.128;4.566;2022-07-21T10:58:11;9.50;;;7.07;;
10387;SDS011;5240;51.128;4.566;2022-07-21T11:00:51;9.63;;;7.35;;
10387;SDS011;5240;51.128;4.566;2022-07-21T11:03:23;10.32;;;8.10;;
10387;SDS011;5240;51.128;4.566;2022-07-21T11:06:12;11.93;;;8.82;;
10387;SDS011;5240;51.128;4.566;2022-07-21T11:08:41;10.18;;;9.25;;
10387;SDS011;5240;51.128;4.566;2022-07-21T11:11:11;10.90;;;9.77;;
10387;SDS011;5240;51.128;4.566;2022-07-21T11:13:58;12.73;;;11.45;;
10387;SDS011;5240;51.128;4.566;2022-07-21T11:19:35;13.60;;;12.20;;
10387;SDS011;5240;51.128;4.566;2022-07-21T11:22:10;12.82;;;11.57;;
10387;SDS011;5240;51.128;4.566;2022-07-21T11:24:39;12.35;;;11.07;;
10387;SDS011;5240;51.128;4.566;2022-07-21T11:27:09;12.68;;;11.38;;
10387;SDS011;5240;51.128;4.566;2022-07-21T11:29:39;13.00;;;11.57;;
10387;SDS011;5240;51.128;4.566;2022-07-21T11:32:07;13.82;;;11.57;;
10387;SDS011;5240;51.128;4.566;2022-07-21T11:34:39;12.48;;;11.07;;
10387;SDS011;5240;51.128;4.566;2022-07-21T11:37:09;14.05;;;10.18;;
10387;SDS011;5240;51.128;4.566;2022-07-21T11:39:37;12.55;;;10.13;;
10387;SDS011;5240;51.128;4.566;2022-07-21T11:42:06;10.10;;;9.07;;
10387;SDS011;5240;51.128;4.566;2022-07-21T11:44:35;11.35;;;10.13;;
10387;SDS011;5240;51.128;4.566;2022-07-21T11:47:03;10.80;;;9.35;;
10387;SDS011;5240;51.128;4.566;2022-07-21T11:49:31;10.32;;;8.93;;
10387;SDS011;5240;51.128;4.566;2022-07-21T11:51:59;11.35;;;9.18;;
10387;SDS011;5240;51.128;4.566;2022-07-21T11:54:33;10.55;;;9.38;;
10387;SDS011;5240;51.128;4.566;2022-07-21T11:57:02;9.63;;;8.20;;
10387;SDS011;5240;51.128;4.566;2022-07-21T11:59:30;7.55;;;6.78;;
10387;SDS011;5240;51.128;4.566;2022-07-21T12:02:00;9.00;;;7.03;;
10387;SDS011;5240;51.128;4.566;2022-07-21T12:04:33;9.50;;;6.70;;
10387;SDS011;5240;51.128;4.566;2022-07-21T12:07:03;8.05;;;6.90;;
10387;SDS011;5240;51.128;4.566;2022-07-21T12:09:31;7.70;;;6.97;;
10387;SDS011;5240;51.128;4.566;2022-07-21T12:11:59;9.23;;;6.38;;
10387;SDS011;5240;51.128;4.566;2022-07-21T12:14:40;8.07;;;5.80;;
10387;SDS011;5240;51.128;4.566;2022-07-21T12:17:12;7.05;;;6.32;;
10387;SDS011;5240;51.128;4.566;2022-07-21T12:19:40;7.80;;;5.75;;
10387;SDS011;5240;51.128;4.566;2022-07-21T12:22:07;7.18;;;5.35;;
10387;SDS011;5240;51.128;4.566;2022-07-21T12:24:50;6.25;;;5.60;;
10387;SDS011;5240;51.128;4.566;2022-07-21T12:27:19;8.88;;;5.40;;
10387;SDS011;5240;51.128;4.566;2022-07-21T12:29:47;9.10;;;5.65;;
10387;SDS011;5240;51.128;4.566;2022-07-21T12:32:37;10.48;;;5.90;;
10387;SDS011;5240;51.128;4.566;2022-07-21T12:35:25;10.48;;;6.03;;
10387;SDS011;5240;51.128;4.566;2022-07-21T12:37:57;8.50;;;6.30;;
10387;SDS011;5240;51.128;4.566;2022-07-21T12:40:26;8.90;;;6.20;;
10387;SDS011;5240;51.128;4.566;2022-07-21T12:43:08;9.00;;;6.20;;
10387;SDS011;5240;51.128;4.566;2022-07-21T12:45:47;12.02;;;6.72;;
10387;SDS011;5240;51.128;4.566;2022-07-21T12:48:19;13.75;;;7.38;;
10387;SDS011;5240;51.128;4.566;2022-07-21T12:51:03;9.52;;;7.43;;
10387;SDS011;5240;51.128;4.566;2022-07-21T12:53:35;12.85;;;6.68;;
10387;SDS011;5240;51.128;4.566;2022-07-21T12:56:03;9.38;;;6.53;;
10387;SDS011;5240;51.128;4.566;2022-07-21T12:58:31;10.02;;;6.75;;
10387;SDS011;5240;51.128;4.566;2022-07-21T13:00:58;9.68;;;6.50;;
10387;SDS011;5240;51.128;4.566;2022-07-21T13:03:27;9.05;;;5.93;;
10387;SDS011;5240;51.128;4.566;2022-07-21T13:05:55;10.10;;;6.15;;
10387;SDS011;5240;51.128;4.566;2022-07-21T13:08:23;9.02;;;6.43;;
10387;SDS011;5240;51.128;4.566;2022-07-21T13:10:51;8.48;;;6.20;;
10387;SDS011;5240;51.128;4.566;2022-07-21T13:13:18;9.63;;;6.38;;
10387;SDS011;5240;51.128;4.566;2022-07-21T13:15:45;12.00;;;6.30;;
10387;SDS011;5240;51.128;4.566;2022-07-21T13:18:12;12.15;;;6.65;;
10387;SDS011;5240;51.128;4.566;2022-07-21T13:20:39;13.35;;;7.05;;
10387;SDS011;5240;51.128;4.566;2022-07-21T13:23:06;10.15;;;6.60;;
10387;SDS011;5240;51.128;4.566;2022-07-21T13:25:36;10.60;;;6.45;;
10387;SDS011;5240;51.128;4.566;2022-07-21T13:28:03;13.48;;;7.00;;
10387;SDS011;5240;51.128;4.566;2022-07-21T13:30:30;11.75;;;7.22;;
10387;SDS011;5240;51.128;4.566;2022-07-21T13:32:57;14.73;;;7.00;;
10387;SDS011;5240;51.128;4.566;2022-07-21T13:35:24;10.82;;;7.25;;
10387;SDS011;5240;51.128;4.566;2022-07-21T13:37:52;12.32;;;7.40;;
10387;SDS011;5240;51.128;4.566;2022-07-21T13:40:19;17.70;;;7.95;;
10387;SDS011;5240;51.128;4.566;2022-07-21T13:42:48;14.10;;;8.25;;
10387;SDS011;5240;51.128;4.566;2022-07-21T13:45:15;17.00;;;9.00;;
10387;SDS011;5240;51.128;4.566;2022-07-21T13:47:42;17.23;;;9.52;;
10387;SDS011;5240;51.128;4.566;2022-07-21T13:50:09;14.02;;;8.75;;
10387;SDS011;5240;51.128;4.566;2022-07-21T13:52:36;16.65;;;9.20;;
10387;SDS011;5240;51.128;4.566;2022-07-21T13:55:04;20.52;;;9.32;;
10387;SDS011;5240;51.128;4.566;2022-07-21T13:57:31;16.35;;;8.95;;
10387;SDS011;5240;51.128;4.566;2022-07-21T14:00:00;17.23;;;8.93;;
10387;SDS011;5240;51.128;4.566;2022-07-21T14:02:27;16.25;;;9.18;;
10387;SDS011;5240;51.128;4.566;2022-07-21T14:04:54;19.67;;;8.32;;
10387;SDS011;5240;51.128;4.566;2022-07-21T14:07:21;14.13;;;7.50;;
10387;SDS011;5240;51.128;4.566;2022-07-21T14:09:48;15.63;;;7.55;;
10387;SDS011;5240;51.128;4.566;2022-07-21T14:12:15;11.50;;;7.95;;
10387;SDS011;5240;51.128;4.566;2022-07-21T14:14:43;12.05;;;9.70;;
10387;SDS011;5240;51.128;4.566;2022-07-21T14:17:13;15.40;;;9.27;;
10387;SDS011;5240;51.128;4.566;2022-07-21T14:19:40;15.98;;;9.07;;
10387;SDS011;5240;51.128;4.566;2022-07-21T14:22:08;13.82;;;8.95;;
10387;SDS011;5240;51.128;4.566;2022-07-21T14:24:36;15.32;;;8.40;;
10387;SDS011;5240;51.128;4.566;2022-07-21T14:27:20;16.63;;;8.25;;
10387;SDS011;5240;51.128;4.566;2022-07-21T14:29:47;18.80;;;8.20;;
10387;SDS011;5240;51.128;4.566;2022-07-21T14:32:18;14.43;;;7.82;;
10387;SDS011;5240;51.128;4.566;2022-07-21T14:34:47;15.63;;;6.70;;
10387;SDS011;5240;51.128;4.566;2022-07-21T14:37:14;17.30;;;7.82;;
10387;SDS011;5240;51.128;4.566;2022-07-21T14:39:41;14.98;;;5.85;;
10387;SDS011;5240;51.128;4.566;2022-07-21T14:42:08;10.85;;;5.82;;
10387;SDS011;5240;51.128;4.566;2022-07-21T14:44:35;12.10;;;5.43;;
10387;SDS011;5240;51.128;4.566;2022-07-21T14:47:02;13.75;;;5.57;;
10387;SDS011;5240;51.128;4.566;2022-07-21T14:49:31;15.00;;;5.63;;
10387;SDS011;5240;51.128;4.566;2022-07-21T14:51:58;14.40;;;5.68;;
10387;SDS011;5240;51.128;4.566;2022-07-21T14:54:25;12.43;;;5.65;;
10387;SDS011;5240;51.128;4.566;2022-07-21T14:56:52;13.40;;;5.07;;
10387;SDS011;5240;51.128;4.566;2022-07-21T14:59:19;14.88;;;6.03;;
10387;SDS011;5240;51.128;4.566;2022-07-21T15:01:46;16.27;;;6.22;;